sensor_id;sensor_type;location;lat;lon;timestamp;temperature;humidity
7472;DHT22;3777;48.722;8.110;2023-12-29T00:01:12;11.40;99.90
7472;DHT22;3777;48.722;8.110;2023-12-29T00:03:39;11.40;99.90
7472;DHT22;3777;48.722;8.110;2023-12-29T00:06:07;11.30;99.90
7472;DHT22;3777;48.722;8.110;2023-12-29T00:08:33;11.30;99.90
7472;DHT22;3777;48.722;8.110;2023-12-29T00:11:00;11.30;99.90
7472;DHT22;3777;48.722;8.110;2023-12-29T00:13:27;11.30;99.90
7472;DHT22;3777;48.722;8.110;2023-12-29T00:15:56;11.30;99.90
7472;DHT22;3777;48.722;8.110;2023-12-29T00:18:23;11.30;99.90
7472;DHT22;3777;48.722;8.110;2023-12-29T00:20:51;11.30;99.90
7472;DHT22;3777;48.722;8.110;2023-12-29T00:23:18;11.30;99.90
7472;DHT22;3777;48.722;8.110;2023-12-29T00:25:45;11.30;99.90
7472;DHT22;3777;48.722;8.110;2023-12-29T00:28:12;11.30;99.90
7472;DHT22;3777;48.722;8.110;2023-12-29T00:30:39;11.30;99.90
7472;DHT22;3777;48.722;8.110;2023-12-29T00:33:08;11.30;99.90
7472;DHT22;3777;48.722;8.110;2023-12-29T00:35:38;11.30;99.90
7472;DHT22;3777;48.722;8.110;2023-12-29T00:38:06;11.30;99.90
7472;DHT22;3777;48.722;8.110;2023-12-29T00:40:33;11.20;99.90
7472;DHT22;3777;48.722;8.110;2023-12-29T00:43:00;11.10;99.90
7472;DHT22;3777;48.722;8.110;2023-12-29T00:45:27;11.10;99.90
7472;DHT22;3777;48.722;8.110;2023-12-29T00:47:58;11.00;99.90
7472;DHT22;3777;48.722;8.110;2023-12-29T00:50:29;10.90;99.90
7472;DHT22;3777;48.722;8.110;2023-12-29T00:52:56;10.80;99.90
7472;DHT22;3777;48.722;8.110;2023-12-29T00:55:23;10.60;99.90
7472;DHT22;3777;48.722;8.110;2023-12-29T00:57:50;10.60;99.90
7472;DHT22;3777;48.722;8.110;2023-12-29T01:00:17;10.60;99.90
7472;DHT22;3777;48.722;8.110;2023-12-29T01:02:47;10.60;99.90
7472;DHT22;3777;48.722;8.110;2023-12-29T01:05:15;10.50;99.90
7472;DHT22;3777;48.722;8.110;2023-12-29T01:07:44;10.50;99.90
7472;DHT22;3777;48.722;8.110;2023-12-29T01:10:11;10.40;99.90
7472;DHT22;3777;48.722;8.110;2023-12-29T01:12:38;10.40;99.90
7472;DHT22;3777;48.722;8.110;2023-12-29T01:15:05;10.50;99.90
7472;DHT22;3777;48.722;8.110;2023-12-29T01:17:33;10.50;99.90
7472;DHT22;3777;48.722;8.110;2023-12-29T01:20:00;10.60;99.90
7472;DHT22;3777;48.722;8.110;2023-12-29T01:22:31;10.60;99.90
7472;DHT22;3777;48.722;8.110;2023-12-29T01:25:00;10.60;99.90
7472;DHT22;3777;48.722;8.110;2023-12-29T01:27:29;10.70;99.90
7472;DHT22;3777;48.722;8.110;2023-12-29T01:29:56;10.80;99.90
7472;DHT22;3777;48.722;8.110;2023-12-29T01:32:23;10.90;99.90
7472;DHT22;3777;48.722;8.110;2023-12-29T01:34:51;10.90;99.90
7472;DHT22;3777;48.722;8.110;2023-12-29T01:37:18;11.00;99.90
7472;DHT22;3777;48.722;8.110;2023-12-29T01:39:45;10.90;99.90
7472;DHT22;3777;48.722;8.110;2023-12-29T01:42:17;10.90;99.90
7472;DHT22;3777;48.722;8.110;2023-12-29T01:44:43;10.90;99.90
7472;DHT22;3777;48.722;8.110;2023-12-29T01:47:13;10.90;99.90
7472;DHT22;3777;48.722;8.110;2023-12-29T01:49:40;10.90;99.90
7472;DHT22;3777;48.722;8.110;2023-12-29T01:52:07;10.80;99.90
7472;DHT22;3777;48.722;8.110;2023-12-29T01:54:35;10.80;99.90
7472;DHT22;3777;48.722;8.110;2023-12-29T01:57:04;10.80;99.90
7472;DHT22;3777;48.722;8.110;2023-12-29T01:59:37;10.90;99.90
7472;DHT22;3777;48.722;8.110;2023-12-29T02:02:04;10.80;99.90
7472;DHT22;3777;48.722;8.110;2023-12-29T02:04:34;10.80;99.90
7472;DHT22;3777;48.722;8.110;2023-12-29T02:07:04;10.70;99.90
7472;DHT22;3777;48.722;8.110;2023-12-29T02:09:32;10.70;99.90
7472;DHT22;3777;48.722;8.110;2023-12-29T02:12:00;10.80;99.90
7472;DHT22;3777;48.722;8.110;2023-12-29T02:14:27;10.80;99.90
7472;DHT22;3777;48.722;8.110;2023-12-29T02:17:06;10.90;99.90
7472;DHT22;3777;48.722;8.110;2023-12-29T02:19:40;10.80;99.90
7472;DHT22;3777;48.722;8.110;2023-12-29T02:22:09;10.70;99.90
7472;DHT22;3777;48.722;8.110;2023-12-29T02:24:37;10.60;99.90
7472;DHT22;3777;48.722;8.110;2023-12-29T02:27:17;10.50;99.90
7472;DHT22;3777;48.722;8.110;2023-12-29T02:30:01;10.50;99.90
7472;DHT22;3777;48.722;8.110;2023-12-29T02:32:32;10.60;99.90
7472;DHT22;3777;48.722;8.110;2023-12-29T02:35:01;10.70;99.90
7472;DHT22;3777;48.722;8.110;2023-12-29T02:37:29;10.60;99.90
7472;DHT22;3777;48.722;8.110;2023-12-29T02:40:01;10.60;99.90
7472;DHT22;3777;48.722;8.110;2023-12-29T02:42:30;10.70;99.90
7472;DHT22;3777;48.722;8.110;2023-12-29T02:44:59;10.70;99.90
7472;DHT22;3777;48.722;8.110;2023-12-29T02:47:26;10.70;99.90
7472;DHT22;3777;48.722;8.110;2023-12-29T02:49:53;10.70;99.90
7472;DHT22;3777;48.722;8.110;2023-12-29T02:52:20;10.60;99.90
7472;DHT22;3777;48.722;8.110;2023-12-29T02:54:47;10.60;99.90
7472;DHT22;3777;48.722;8.110;2023-12-29T02:57:14;10.60;99.90
7472;DHT22;3777;48.722;8.110;2023-12-29T02:59:42;10.70;99.90
7472;DHT22;3777;48.722;8.110;2023-12-29T03:02:09;10.70;99.90
7472;DHT22;3777;48.722;8.110;2023-12-29T03:04:39;10.70;99.90
7472;DHT22;3777;48.722;8.110;2023-12-29T03:07:06;10.80;99.90
7472;DHT22;3777;48.722;8.110;2023-12-29T03:09:33;10.80;99.90
7472;DHT22;3777;48.722;8.110;2023-12-29T03:12:00;10.80;99.90
7472;DHT22;3777;48.722;8.110;2023-12-29T03:14:27;10.90;99.90
7472;DHT22;3777;48.722;8.110;2023-12-29T03:16:55;10.90;99.90
7472;DHT22;3777;48.722;8.110;2023-12-29T03:19:23;10.90;99.90
7472;DHT22;3777;48.722;8.110;2023-12-29T03:21:50;10.80;99.90
7472;DHT22;3777;48.722;8.110;2023-12-29T03:24:19;10.90;99.90
7472;DHT22;3777;48.722;8.110;2023-12-29T03:26:46;10.90;99.90
7472;DHT22;3777;48.722;8.110;2023-12-29T03:29:13;10.80;99.90
7472;DHT22;3777;48.722;8.110;2023-12-29T03:31:40;10.80;99.90
7472;DHT22;3777;48.722;8.110;2023-12-29T03:34:08;10.80;99.90
7472;DHT22;3777;48.722;8.110;2023-12-29T03:36:35;10.90;99.90
7472;DHT22;3777;48.722;8.110;2023-12-29T03:39:02;10.90;99.90
7472;DHT22;3777;48.722;8.110;2023-12-29T03:41:30;10.90;99.90
7472;DHT22;3777;48.722;8.110;2023-12-29T03:43:57;10.90;99.90
7472;DHT22;3777;48.722;8.110;2023-12-29T03:46:25;11.00;99.90
7472;DHT22;3777;48.722;8.110;2023-12-29T03:48:52;10.90;99.90
7472;DHT22;3777;48.722;8.110;2023-12-29T03:51:20;10.90;99.90
7472;DHT22;3777;48.722;8.110;2023-12-29T03:53:47;10.90;99.90
7472;DHT22;3777;48.722;8.110;2023-12-29T03:56:15;11.00;99.90
7472;DHT22;3777;48.722;8.110;2023-12-29T03:58:42;10.90;99.90
7472;DHT22;3777;48.722;8.110;2023-12-29T04:01:10;10.90;99.90
7472;DHT22;3777;48.722;8.110;2023-12-29T04:03:37;10.70;99.90
7472;DHT22;3777;48.722;8.110;2023-12-29T04:06:04;10.70;99.90
7472;DHT22;3777;48.722;8.110;2023-12-29T04:08:33;10.70;99.90
7472;DHT22;3777;48.722;8.110;2023-12-29T04:11:00;10.60;99.90
7472;DHT22;3777;48.722;8.110;2023-12-29T04:13:27;10.60;99.90
7472;DHT22;3777;48.722;8.110;2023-12-29T04:15:54;10.70;99.90
7472;DHT22;3777;48.722;8.110;2023-12-29T04:18:21;10.70;99.90
7472;DHT22;3777;48.722;8.110;2023-12-29T04:20:49;10.70;99.90
7472;DHT22;3777;48.722;8.110;2023-12-29T04:23:16;10.60;99.90
7472;DHT22;3777;48.722;8.110;2023-12-29T04:25:44;10.60;99.90
7472;DHT22;3777;48.722;8.110;2023-12-29T04:28:11;10.60;99.90
7472;DHT22;3777;48.722;8.110;2023-12-29T04:30:38;10.70;99.90
7472;DHT22;3777;48.722;8.110;2023-12-29T04:33:05;10.70;99.90
7472;DHT22;3777;48.722;8.110;2023-12-29T04:35:32;10.80;99.90
7472;DHT22;3777;48.722;8.110;2023-12-29T04:37:59;10.90;99.90
7472;DHT22;3777;48.722;8.110;2023-12-29T04:40:26;10.80;99.90
7472;DHT22;3777;48.722;8.110;2023-12-29T04:42:54;10.90;99.90
7472;DHT22;3777;48.722;8.110;2023-12-29T04:45:24;10.90;99.90
7472;DHT22;3777;48.722;8.110;2023-12-29T04:47:51;10.80;99.90
7472;DHT22;3777;48.722;8.110;2023-12-29T04:50:18;10.90;99.90
7472;DHT22;3777;48.722;8.110;2023-12-29T04:52:45;10.90;99.90
7472;DHT22;3777;48.722;8.110;2023-12-29T04:55:12;10.90;99.90
7472;DHT22;3777;48.722;8.110;2023-12-29T04:57:39;11.00;99.90
7472;DHT22;3777;48.722;8.110;2023-12-29T05:00:08;11.00;99.90
7472;DHT22;3777;48.722;8.110;2023-12-29T05:02:35;11.10;99.90
7472;DHT22;3777;48.722;8.110;2023-12-29T05:05:02;11.10;99.90
7472;DHT22;3777;48.722;8.110;2023-12-29T05:07:30;11.10;99.90
7472;DHT22;3777;48.722;8.110;2023-12-29T05:09:57;11.10;99.90
7472;DHT22;3777;48.722;8.110;2023-12-29T05:12:26;11.10;99.90
7472;DHT22;3777;48.722;8.110;2023-12-29T05:14:52;11.10;99.90
7472;DHT22;3777;48.722;8.110;2023-12-29T05:17:21;11.10;99.90
7472;DHT22;3777;48.722;8.110;2023-12-29T05:19:48;11.10;99.90
7472;DHT22;3777;48.722;8.110;2023-12-29T05:22:15;11.00;99.90
7472;DHT22;3777;48.722;8.110;2023-12-29T05:24:43;11.00;99.90
7472;DHT22;3777;48.722;8.110;2023-12-29T05:27:11;10.90;99.90
7472;DHT22;3777;48.722;8.110;2023-12-29T05:29:37;10.70;99.90
7472;DHT22;3777;48.722;8.110;2023-12-29T05:32:05;10.70;99.90
7472;DHT22;3777;48.722;8.110;2023-12-29T05:34:34;10.60;99.90
7472;DHT22;3777;48.722;8.110;2023-12-29T05:37:01;10.60;99.90
7472;DHT22;3777;48.722;8.110;2023-12-29T05:39:28;10.50;99.90
7472;DHT22;3777;48.722;8.110;2023-12-29T05:41:55;10.50;99.90
7472;DHT22;3777;48.722;8.110;2023-12-29T05:44:22;10.50;99.90
7472;DHT22;3777;48.722;8.110;2023-12-29T05:46:49;10.60;99.90
7472;DHT22;3777;48.722;8.110;2023-12-29T05:49:17;10.60;99.90
7472;DHT22;3777;48.722;8.110;2023-12-29T05:51:45;10.60;99.90
7472;DHT22;3777;48.722;8.110;2023-12-29T05:54:13;10.50;99.90
7472;DHT22;3777;48.722;8.110;2023-12-29T05:56:40;10.60;99.90
7472;DHT22;3777;48.722;8.110;2023-12-29T05:59:10;10.60;99.90
7472;DHT22;3777;48.722;8.110;2023-12-29T06:01:37;10.60;99.90
7472;DHT22;3777;48.722;8.110;2023-12-29T06:04:04;10.60;99.90
7472;DHT22;3777;48.722;8.110;2023-12-29T06:06:31;10.70;99.90
7472;DHT22;3777;48.722;8.110;2023-12-29T06:08:59;10.70;99.90
7472;DHT22;3777;48.722;8.110;2023-12-29T06:11:26;10.70;99.90
7472;DHT22;3777;48.722;8.110;2023-12-29T06:13:53;10.70;99.90
7472;DHT22;3777;48.722;8.110;2023-12-29T06:16:20;10.60;99.90
7472;DHT22;3777;48.722;8.110;2023-12-29T06:18:47;10.70;99.90
7472;DHT22;3777;48.722;8.110;2023-12-29T06:21:16;10.70;99.90
7472;DHT22;3777;48.722;8.110;2023-12-29T06:23:46;10.70;99.90
7472;DHT22;3777;48.722;8.110;2023-12-29T06:26:15;10.70;99.90
7472;DHT22;3777;48.722;8.110;2023-12-29T06:28:43;10.70;99.90
7472;DHT22;3777;48.722;8.110;2023-12-29T06:31:13;10.70;99.90
7472;DHT22;3777;48.722;8.110;2023-12-29T06:33:41;10.60;99.90
7472;DHT22;3777;48.722;8.110;2023-12-29T06:36:09;10.60;99.90
7472;DHT22;3777;48.722;8.110;2023-12-29T06:38:36;10.70;99.90
7472;DHT22;3777;48.722;8.110;2023-12-29T06:41:04;10.70;99.90
7472;DHT22;3777;48.722;8.110;2023-12-29T06:43:32;10.70;99.90
7472;DHT22;3777;48.722;8.110;2023-12-29T06:46:00;10.80;99.90
7472;DHT22;3777;48.722;8.110;2023-12-29T06:48:27;10.70;99.90
7472;DHT22;3777;48.722;8.110;2023-12-29T06:50:54;10.60;99.90
7472;DHT22;3777;48.722;8.110;2023-12-29T06:53:21;10.60;99.90
7472;DHT22;3777;48.722;8.110;2023-12-29T06:55:48;10.50;99.90
7472;DHT22;3777;48.722;8.110;2023-12-29T06:58:15;10.50;99.90
7472;DHT22;3777;48.722;8.110;2023-12-29T07:00:43;10.40;99.90
7472;DHT22;3777;48.722;8.110;2023-12-29T07:03:12;10.40;99.90
7472;DHT22;3777;48.722;8.110;2023-12-29T07:05:40;10.50;99.90
7472;DHT22;3777;48.722;8.110;2023-12-29T07:08:07;10.60;99.90
7472;DHT22;3777;48.722;8.110;2023-12-29T07:10:34;10.60;99.90
7472;DHT22;3777;48.722;8.110;2023-12-29T07:13:01;10.60;99.90
7472;DHT22;3777;48.722;8.110;2023-12-29T07:15:28;10.60;99.90
7472;DHT22;3777;48.722;8.110;2023-12-29T07:17:56;10.60;99.90
7472;DHT22;3777;48.722;8.110;2023-12-29T07:20:23;10.70;99.90
7472;DHT22;3777;48.722;8.110;2023-12-29T07:22:50;10.80;99.90
7472;DHT22;3777;48.722;8.110;2023-12-29T07:25:20;10.80;99.90
7472;DHT22;3777;48.722;8.110;2023-12-29T07:27:47;10.80;99.90
7472;DHT22;3777;48.722;8.110;2023-12-29T07:30:14;10.80;99.90
7472;DHT22;3777;48.722;8.110;2023-12-29T07:32:42;10.90;99.90
7472;DHT22;3777;48.722;8.110;2023-12-29T07:35:10;10.90;99.90
7472;DHT22;3777;48.722;8.110;2023-12-29T07:37:43;10.90;99.90
7472;DHT22;3777;48.722;8.110;2023-12-29T07:40:11;10.80;99.90
7472;DHT22;3777;48.722;8.110;2023-12-29T07:42:39;10.90;99.90
7472;DHT22;3777;48.722;8.110;2023-12-29T07:45:07;10.90;99.90
7472;DHT22;3777;48.722;8.110;2023-12-29T07:47:35;10.90;99.90
7472;DHT22;3777;48.722;8.110;2023-12-29T07:50:02;10.90;99.90
7472;DHT22;3777;48.722;8.110;2023-12-29T07:52:31;10.90;99.90
7472;DHT22;3777;48.722;8.110;2023-12-29T07:54:58;11.00;99.90
7472;DHT22;3777;48.722;8.110;2023-12-29T07:57:25;11.10;99.90
7472;DHT22;3777;48.722;8.110;2023-12-29T07:59:52;11.10;99.90
7472;DHT22;3777;48.722;8.110;2023-12-29T08:02:19;11.10;99.90
7472;DHT22;3777;48.722;8.110;2023-12-29T08:04:46;11.20;99.90
7472;DHT22;3777;48.722;8.110;2023-12-29T08:07:14;11.20;99.90
7472;DHT22;3777;48.722;8.110;2023-12-29T08:09:42;11.30;99.90
7472;DHT22;3777;48.722;8.110;2023-12-29T08:12:09;11.30;99.90
7472;DHT22;3777;48.722;8.110;2023-12-29T08:14:36;11.30;99.90
7472;DHT22;3777;48.722;8.110;2023-12-29T08:17:03;11.30;99.90
7472;DHT22;3777;48.722;8.110;2023-12-29T08:19:30;11.40;99.90
7472;DHT22;3777;48.722;8.110;2023-12-29T08:21:57;11.50;99.90
7472;DHT22;3777;48.722;8.110;2023-12-29T08:24:24;11.50;99.90
7472;DHT22;3777;48.722;8.110;2023-12-29T08:26:52;11.50;99.90
7472;DHT22;3777;48.722;8.110;2023-12-29T08:29:21;11.50;99.90
7472;DHT22;3777;48.722;8.110;2023-12-29T08:31:51;11.60;99.90
7472;DHT22;3777;48.722;8.110;2023-12-29T08:34:18;11.50;99.90
7472;DHT22;3777;48.722;8.110;2023-12-29T08:36:45;11.50;99.90
7472;DHT22;3777;48.722;8.110;2023-12-29T08:39:12;11.60;99.90
7472;DHT22;3777;48.722;8.110;2023-12-29T08:41:39;11.60;99.90
7472;DHT22;3777;48.722;8.110;2023-12-29T08:44:16;11.50;99.90
7472;DHT22;3777;48.722;8.110;2023-12-29T08:46:43;11.60;99.90
7472;DHT22;3777;48.722;8.110;2023-12-29T08:49:10;11.60;99.90
7472;DHT22;3777;48.722;8.110;2023-12-29T08:51:37;11.50;99.90
7472;DHT22;3777;48.722;8.110;2023-12-29T08:54:04;11.50;99.90
7472;DHT22;3777;48.722;8.110;2023-12-29T08:56:32;11.50;99.90
7472;DHT22;3777;48.722;8.110;2023-12-29T08:58:59;11.40;99.90
7472;DHT22;3777;48.722;8.110;2023-12-29T09:01:28;11.50;99.90
7472;DHT22;3777;48.722;8.110;2023-12-29T09:03:55;11.40;99.90
7472;DHT22;3777;48.722;8.110;2023-12-29T09:06:22;11.40;99.90
7472;DHT22;3777;48.722;8.110;2023-12-29T09:08:49;11.50;99.90
7472;DHT22;3777;48.722;8.110;2023-12-29T09:11:15;11.40;99.90
7472;DHT22;3777;48.722;8.110;2023-12-29T09:13:42;11.40;99.90
7472;DHT22;3777;48.722;8.110;2023-12-29T09:16:09;11.40;99.90
7472;DHT22;3777;48.722;8.110;2023-12-29T09:18:38;11.40;99.90
7472;DHT22;3777;48.722;8.110;2023-12-29T09:21:05;11.40;99.90
7472;DHT22;3777;48.722;8.110;2023-12-29T09:23:31;11.40;99.90
7472;DHT22;3777;48.722;8.110;2023-12-29T09:25:59;11.30;99.90
7472;DHT22;3777;48.722;8.110;2023-12-29T09:28:26;11.30;99.90
7472;DHT22;3777;48.722;8.110;2023-12-29T09:30:53;11.30;99.90
7472;DHT22;3777;48.722;8.110;2023-12-29T09:33:23;11.30;99.90
7472;DHT22;3777;48.722;8.110;2023-12-29T09:35:51;11.30;99.90
7472;DHT22;3777;48.722;8.110;2023-12-29T09:38:19;11.30;99.90
7472;DHT22;3777;48.722;8.110;2023-12-29T09:40:46;11.30;99.90
7472;DHT22;3777;48.722;8.110;2023-12-29T09:43:14;11.50;99.90
7472;DHT22;3777;48.722;8.110;2023-12-29T09:45:42;11.60;99.90
7472;DHT22;3777;48.722;8.110;2023-12-29T09:48:13;11.80;99.90
7472;DHT22;3777;48.722;8.110;2023-12-29T09:50:42;12.00;99.90
7472;DHT22;3777;48.722;8.110;2023-12-29T09:53:11;12.30;99.90
7472;DHT22;3777;48.722;8.110;2023-12-29T09:55:42;12.40;99.90
7472;DHT22;3777;48.722;8.110;2023-12-29T09:58:12;12.60;99.90
7472;DHT22;3777;48.722;8.110;2023-12-29T10:00:39;12.90;99.90
7472;DHT22;3777;48.722;8.110;2023-12-29T10:03:08;13.10;99.90
7472;DHT22;3777;48.722;8.110;2023-12-29T10:05:35;13.30;99.90
7472;DHT22;3777;48.722;8.110;2023-12-29T10:08:03;13.60;99.90
7472;DHT22;3777;48.722;8.110;2023-12-29T10:10:33;13.90;99.90
7472;DHT22;3777;48.722;8.110;2023-12-29T10:13:04;14.00;99.90
7472;DHT22;3777;48.722;8.110;2023-12-29T10:15:37;13.90;99.90
7472;DHT22;3777;48.722;8.110;2023-12-29T10:18:13;13.90;99.90
7472;DHT22;3777;48.722;8.110;2023-12-29T10:20:45;14.00;99.90
7472;DHT22;3777;48.722;8.110;2023-12-29T10:23:18;14.20;99.90
7472;DHT22;3777;48.722;8.110;2023-12-29T10:25:47;14.30;99.90
7472;DHT22;3777;48.722;8.110;2023-12-29T10:28:16;14.40;99.90
7472;DHT22;3777;48.722;8.110;2023-12-29T10:30:44;14.30;99.90
7472;DHT22;3777;48.722;8.110;2023-12-29T10:33:19;14.20;99.90
7472;DHT22;3777;48.722;8.110;2023-12-29T10:35:57;14.00;99.90
7472;DHT22;3777;48.722;8.110;2023-12-29T10:38:27;14.00;99.90
7472;DHT22;3777;48.722;8.110;2023-12-29T10:41:10;14.00;99.90
7472;DHT22;3777;48.722;8.110;2023-12-29T10:43:38;14.20;99.90
7472;DHT22;3777;48.722;8.110;2023-12-29T10:46:06;14.40;99.90
7472;DHT22;3777;48.722;8.110;2023-12-29T10:48:34;14.40;99.90
7472;DHT22;3777;48.722;8.110;2023-12-29T10:51:01;14.40;99.90
7472;DHT22;3777;48.722;8.110;2023-12-29T10:53:29;14.30;99.90
7472;DHT22;3777;48.722;8.110;2023-12-29T10:55:58;14.20;99.90
7472;DHT22;3777;48.722;8.110;2023-12-29T10:58:29;14.10;99.90
7472;DHT22;3777;48.722;8.110;2023-12-29T11:00:59;14.00;99.90
7472;DHT22;3777;48.722;8.110;2023-12-29T11:03:26;14.20;99.90
7472;DHT22;3777;48.722;8.110;2023-12-29T11:05:59;14.20;99.90
7472;DHT22;3777;48.722;8.110;2023-12-29T11:08:26;14.20;99.90
7472;DHT22;3777;48.722;8.110;2023-12-29T11:10:54;14.40;99.90
7472;DHT22;3777;48.722;8.110;2023-12-29T11:13:24;14.90;99.90
7472;DHT22;3777;48.722;8.110;2023-12-29T11:15:52;14.90;99.90
7472;DHT22;3777;48.722;8.110;2023-12-29T11:18:21;14.80;99.90
7472;DHT22;3777;48.722;8.110;2023-12-29T11:20:49;14.80;99.90
7472;DHT22;3777;48.722;8.110;2023-12-29T11:23:16;14.70;99.90
7472;DHT22;3777;48.722;8.110;2023-12-29T11:25:44;14.60;99.90
7472;DHT22;3777;48.722;8.110;2023-12-29T11:28:12;14.50;99.90
7472;DHT22;3777;48.722;8.110;2023-12-29T11:30:40;14.40;99.90
7472;DHT22;3777;48.722;8.110;2023-12-29T11:33:12;14.30;99.90
7472;DHT22;3777;48.722;8.110;2023-12-29T11:35:44;14.10;99.90
7472;DHT22;3777;48.722;8.110;2023-12-29T11:38:23;14.10;99.90
7472;DHT22;3777;48.722;8.110;2023-12-29T11:40:57;14.10;99.90
7472;DHT22;3777;48.722;8.110;2023-12-29T11:43:29;14.10;99.90
7472;DHT22;3777;48.722;8.110;2023-12-29T11:45:57;14.10;99.90
7472;DHT22;3777;48.722;8.110;2023-12-29T11:48:52;14.10;99.90
7472;DHT22;3777;48.722;8.110;2023-12-29T11:51:30;14.10;99.90
7472;DHT22;3777;48.722;8.110;2023-12-29T11:53:58;14.00;99.90
7472;DHT22;3777;48.722;8.110;2023-12-29T11:56:31;13.90;99.90
7472;DHT22;3777;48.722;8.110;2023-12-29T11:59:12;13.90;99.90
7472;DHT22;3777;48.722;8.110;2023-12-29T12:01:41;14.00;99.90
7472;DHT22;3777;48.722;8.110;2023-12-29T12:04:38;14.00;99.90
7472;DHT22;3777;48.722;8.110;2023-12-29T12:07:07;13.90;99.90
7472;DHT22;3777;48.722;8.110;2023-12-29T12:09:35;13.80;99.90
7472;DHT22;3777;48.722;8.110;2023-12-29T12:12:02;13.70;99.90
7472;DHT22;3777;48.722;8.110;2023-12-29T12:14:50;13.80;99.90
7472;DHT22;3777;48.722;8.110;2023-12-29T12:17:28;14.00;99.90
7472;DHT22;3777;48.722;8.110;2023-12-29T12:20:01;14.10;99.90
7472;DHT22;3777;48.722;8.110;2023-12-29T12:22:31;14.20;99.90
7472;DHT22;3777;48.722;8.110;2023-12-29T12:24:59;14.30;99.90
7472;DHT22;3777;48.722;8.110;2023-12-29T12:27:27;14.30;99.90
7472;DHT22;3777;48.722;8.110;2023-12-29T12:29:55;14.30;99.90
7472;DHT22;3777;48.722;8.110;2023-12-29T12:32:23;14.10;99.90
7472;DHT22;3777;48.722;8.110;2023-12-29T12:34:52;14.30;99.90
7472;DHT22;3777;48.722;8.110;2023-12-29T12:37:19;14.20;99.90
7472;DHT22;3777;48.722;8.110;2023-12-29T12:39:46;14.10;99.90
7472;DHT22;3777;48.722;8.110;2023-12-29T12:42:13;14.10;99.90
7472;DHT22;3777;48.722;8.110;2023-12-29T12:44:44;14.00;99.90
7472;DHT22;3777;48.722;8.110;2023-12-29T12:47:17;14.00;99.90
7472;DHT22;3777;48.722;8.110;2023-12-29T12:49:45;14.10;99.90
7472;DHT22;3777;48.722;8.110;2023-12-29T12:52:17;14.10;99.90
7472;DHT22;3777;48.722;8.110;2023-12-29T12:54:44;14.10;99.90
7472;DHT22;3777;48.722;8.110;2023-12-29T12:57:18;14.20;99.90
7472;DHT22;3777;48.722;8.110;2023-12-29T12:59:46;14.20;99.90
7472;DHT22;3777;48.722;8.110;2023-12-29T13:02:13;14.20;99.90
7472;DHT22;3777;48.722;8.110;2023-12-29T13:04:41;14.10;99.90
7472;DHT22;3777;48.722;8.110;2023-12-29T13:07:09;14.10;99.90
7472;DHT22;3777;48.722;8.110;2023-12-29T13:09:37;14.10;99.90
7472;DHT22;3777;48.722;8.110;2023-12-29T13:12:09;14.10;99.90
7472;DHT22;3777;48.722;8.110;2023-12-29T13:14:35;14.00;99.90
7472;DHT22;3777;48.722;8.110;2023-12-29T13:17:08;14.00;99.90
7472;DHT22;3777;48.722;8.110;2023-12-29T13:19:36;14.00;99.90
7472;DHT22;3777;48.722;8.110;2023-12-29T13:22:07;13.90;99.90
7472;DHT22;3777;48.722;8.110;2023-12-29T13:24:35;13.80;99.90
7472;DHT22;3777;48.722;8.110;2023-12-29T13:27:05;13.90;99.90
7472;DHT22;3777;48.722;8.110;2023-12-29T13:29:34;13.80;99.90
7472;DHT22;3777;48.722;8.110;2023-12-29T13:32:06;13.80;99.90
7472;DHT22;3777;48.722;8.110;2023-12-29T13:34:39;13.80;99.90
7472;DHT22;3777;48.722;8.110;2023-12-29T13:37:17;13.80;99.90
7472;DHT22;3777;48.722;8.110;2023-12-29T13:39:51;13.70;99.90
7472;DHT22;3777;48.722;8.110;2023-12-29T13:42:22;13.80;99.90
7472;DHT22;3777;48.722;8.110;2023-12-29T13:44:50;13.70;99.90
7472;DHT22;3777;48.722;8.110;2023-12-29T13:47:19;13.70;99.90
7472;DHT22;3777;48.722;8.110;2023-12-29T13:49:47;13.70;99.90
7472;DHT22;3777;48.722;8.110;2023-12-29T13:52:14;13.70;99.90
7472;DHT22;3777;48.722;8.110;2023-12-29T13:54:43;13.70;99.90
7472;DHT22;3777;48.722;8.110;2023-12-29T13:57:10;13.60;99.90
7472;DHT22;3777;48.722;8.110;2023-12-29T13:59:39;13.60;99.90
7472;DHT22;3777;48.722;8.110;2023-12-29T14:02:26;13.60;99.90
7472;DHT22;3777;48.722;8.110;2023-12-29T14:05:24;13.50;99.90
7472;DHT22;3777;48.722;8.110;2023-12-29T14:07:59;13.40;99.90
7472;DHT22;3777;48.722;8.110;2023-12-29T14:10:29;13.40;99.90
7472;DHT22;3777;48.722;8.110;2023-12-29T14:13:04;13.50;99.90
7472;DHT22;3777;48.722;8.110;2023-12-29T14:15:35;13.40;99.90
7472;DHT22;3777;48.722;8.110;2023-12-29T14:18:06;13.50;99.90
7472;DHT22;3777;48.722;8.110;2023-12-29T14:20:35;13.40;99.90
7472;DHT22;3777;48.722;8.110;2023-12-29T14:23:03;13.40;99.90
7472;DHT22;3777;48.722;8.110;2023-12-29T14:25:31;13.40;99.90
7472;DHT22;3777;48.722;8.110;2023-12-29T14:28:01;13.40;99.90
7472;DHT22;3777;48.722;8.110;2023-12-29T14:30:28;13.40;99.90
7472;DHT22;3777;48.722;8.110;2023-12-29T14:32:58;13.40;99.90
7472;DHT22;3777;48.722;8.110;2023-12-29T14:35:25;13.30;99.90
7472;DHT22;3777;48.722;8.110;2023-12-29T14:37:52;13.30;99.90
7472;DHT22;3777;48.722;8.110;2023-12-29T14:40:19;13.20;99.90
7472;DHT22;3777;48.722;8.110;2023-12-29T14:42:46;13.20;99.90
7472;DHT22;3777;48.722;8.110;2023-12-29T14:45:13;13.20;99.90
7472;DHT22;3777;48.722;8.110;2023-12-29T14:47:42;13.20;99.90
7472;DHT22;3777;48.722;8.110;2023-12-29T14:50:12;13.20;99.90
7472;DHT22;3777;48.722;8.110;2023-12-29T14:52:39;13.20;99.90
7472;DHT22;3777;48.722;8.110;2023-12-29T14:55:06;13.20;99.90
7472;DHT22;3777;48.722;8.110;2023-12-29T14:57:34;13.20;99.90
7472;DHT22;3777;48.722;8.110;2023-12-29T15:00:01;13.20;99.90
7472;DHT22;3777;48.722;8.110;2023-12-29T15:02:29;13.10;99.90
7472;DHT22;3777;48.722;8.110;2023-12-29T15:04:56;13.10;99.90
7472;DHT22;3777;48.722;8.110;2023-12-29T15:07:25;13.00;99.90
7472;DHT22;3777;48.722;8.110;2023-12-29T15:09:56;13.10;99.90
7472;DHT22;3777;48.722;8.110;2023-12-29T15:12:23;13.10;99.90
7472;DHT22;3777;48.722;8.110;2023-12-29T15:14:50;13.10;99.90
7472;DHT22;3777;48.722;8.110;2023-12-29T15:17:17;13.10;99.90
7472;DHT22;3777;48.722;8.110;2023-12-29T15:19:43;13.10;99.90
7472;DHT22;3777;48.722;8.110;2023-12-29T15:22:10;13.10;99.90
7472;DHT22;3777;48.722;8.110;2023-12-29T15:24:39;13.00;99.90
7472;DHT22;3777;48.722;8.110;2023-12-29T15:27:06;13.00;99.90
7472;DHT22;3777;48.722;8.110;2023-12-29T15:29:33;13.00;99.90
7472;DHT22;3777;48.722;8.110;2023-12-29T15:32:01;13.00;99.90
7472;DHT22;3777;48.722;8.110;2023-12-29T15:34:27;13.00;99.90
7472;DHT22;3777;48.722;8.110;2023-12-29T15:36:54;12.90;99.90
7472;DHT22;3777;48.722;8.110;2023-12-29T15:39:21;12.90;99.90
7472;DHT22;3777;48.722;8.110;2023-12-29T15:41:52;12.90;99.90
7472;DHT22;3777;48.722;8.110;2023-12-29T15:44:20;12.90;99.90
7472;DHT22;3777;48.722;8.110;2023-12-29T15:46:47;12.80;99.90
7472;DHT22;3777;48.722;8.110;2023-12-29T15:49:14;12.70;99.90
7472;DHT22;3777;48.722;8.110;2023-12-29T15:51:41;12.70;99.90
7472;DHT22;3777;48.722;8.110;2023-12-29T15:54:08;12.70;99.90
7472;DHT22;3777;48.722;8.110;2023-12-29T15:56:35;12.60;99.90
7472;DHT22;3777;48.722;8.110;2023-12-29T15:59:03;12.60;99.90
7472;DHT22;3777;48.722;8.110;2023-12-29T16:01:31;12.40;99.90
7472;DHT22;3777;48.722;8.110;2023-12-29T16:03:58;12.30;99.90
7472;DHT22;3777;48.722;8.110;2023-12-29T16:06:26;12.30;99.90
7472;DHT22;3777;48.722;8.110;2023-12-29T16:08:53;12.20;99.90
7472;DHT22;3777;48.722;8.110;2023-12-29T16:11:22;12.00;99.90